Sao Paulo/Congonhas Airport

Airport
ICAO code: 
SBSP
IATA Code: 
CGH
Summary
ICAO Region: 
CARSAM
Territory: 
Location: 
Congonhas, São Paulo
Serving: 
São Paulo
Elevation: 
2631 ft
Coordinates: 
Aerial View: 
23° 37' 33.996" S, 46° 39' 23.004" W
Metar
Observation
SBSP 262300Z 35012KT 9999 SCT015 BKN017 21/17 Q1010
Station
Sao Paulo/Congonhas Aeroporto
Date/Time
2021-11-26 23:00:00
Wind direction
350°
Wind speed
12 kts
Lowest cloud amount
scattered clouds
Temperature
21°C
Dew point
17°C
Humidity
77%
QNH
1010 hPa
Weather condition
n/a

São Paulo/Congonhas Airport Portuguese pronunciation: is one of the four commercial airports serving São Paulo, Brazil.

Climatology

Humid “subtropical” climate (Köppen climate classification Cfa)

Runways

Designator Length Width Surface Rops
17L/35R 1435 45 ASP Yes/Yes
17R/35L 1940 45 ASP Yes/Yes
Airport map: 
Aerial View: 

Accidents and Serious Incidents at or in the vicinity of SBSP

SKYbrary Partners:

Safety knowledge contributed by: